• Join FlightAware (Why Join?)
  • Login
  • US Flag 
07:03PM EST


 

Airport Tracker/Info


-or-


 

Live Flight TrackerFlight Track Log ✈ N53NW ✈ 02-Sep-2013 ✈ KPIE - KFTY

Flight Track Log - Related Links

Times and Time Zones

All times are in EDT time to prevent confusion due to time zone crossing. See the N53NW flight status page for this flight to view local times or setup timezone preferences in your user account.

Time Position Orientation Groundspeed Altitude Reporting Facility
EDT Latitude Longitude Course Direction KTS MPH feet Rate Location/Type
03:10PM 27.9167 -82.7000 352° North 162 186 600  Level Tampa TRACON
03:11PM 28.0167 -82.7167 352° North 256 295 1,700 1,458 Climbing Tampa TRACON
03:12PM 28.0833 -82.7167 360° North 264 304 4,100 2,150 Climbing Tampa TRACON
03:13PM 28.1500 -82.7000 12° North 276 318 6,000 1,550 Climbing Tampa TRACON
03:14PM 28.2333 -82.7000 360° North 283 326 7,200 1,770 Climbing Tampa TRACON
03:17PM 28.4169 -82.6636 10° North 282 325 11,900 1,447 Climbing Jacksonville Center
03:18PM 28.5067 -82.6539 North 305 351 12,000 1,109 Climbing Jacksonville Center
03:19PM 28.5983 -82.6489 North 315 362 14,100 1,983 Climbing Jacksonville Center
03:20PM 28.6881 -82.6417 North 320 368 16,000 1,950 Climbing Jacksonville Center
03:21PM 28.7758 -82.6367 North 320 368 18,000 2,017 Climbing Jacksonville Center
03:22PM 28.8675 -82.6317 North 320 368 20,000 1,983 Climbing Jacksonville Center
03:23PM 28.9553 -82.6172 North 320 368 22,000 2,033 Climbing Jacksonville Center
03:24PM 29.0408 -82.5956 12° North 320 368 24,100 2,000 Climbing Jacksonville Center
03:25PM 29.1283 -82.5764 11° North 315 362 26,000 1,900 Climbing Jacksonville Center
03:26PM 29.2117 -82.5572 11° North 315 362 27,900 1,750 Climbing Jacksonville Center
03:27PM 29.2972 -82.5353 13° North 310 357 29,500 1,500 Climbing Jacksonville Center
03:28PM 29.3850 -82.5208 North 316 364 30,900 1,450 Climbing Jacksonville Center
03:29PM 29.4789 -82.5061 North 321 369 32,400 1,400 Climbing Jacksonville Center
03:30PM 29.5706 -82.4961 North 326 375 33,700 1,250 Climbing Jacksonville Center
03:31PM 29.6667 -82.5053 355° North 331 381 34,900 650 Climbing Jacksonville Center
03:32PM 29.7692 -82.5169 354° North 344 396 35,000 50 Climbing Jacksonville Center
03:33PM 29.8778 -82.5406 349° North 367 422 35,000  Level Jacksonville Center
03:34PM 29.9883 -82.5642 350° North 395 455 35,000  Level Jacksonville Center
03:35PM 30.0992 -82.5900 349° North 395 455 35,000  Level Jacksonville Center
03:36PM 30.2056 -82.6114 350° North 395 455 35,000  Level Jacksonville Center
03:37PM 30.3164 -82.6328 351° North 395 455 35,000  Level Jacksonville Center
03:38PM 30.4292 -82.6469 354° North 395 455 35,000  Level Jacksonville Center
03:39PM 30.5356 -82.6658 351° North 390 449 35,000  Level Jacksonville Center
03:40PM 30.6464 -82.6850 352° North 390 449 35,000  Level Jacksonville Center
03:41PM 30.7569 -82.6944 356° North 390 449 35,000  Level Jacksonville Center
03:42PM 30.8678 -82.7039 356° North 390 449 35,000  Level Jacksonville Center
03:43PM 30.9783 -82.7350 346° North 395 455 35,000  Level Jacksonville Center
03:44PM 31.0892 -82.7689 345° North 395 455 35,000  Level Jacksonville Center
03:45PM 31.1853 -82.7956 347° North 395 455 35,000  Level Jacksonville Center
03:46PM 31.2939 -82.8269 346° North 395 455 35,000 -604 Level Jacksonville Center
03:47PM 31.4719 -82.8847 345° North 397 457 33,400 -755 Descending Atlanta Center
03:48PM 31.5808 -82.9225 344° North 397 457 33,000 -200 Descending Atlanta Center
03:49PM 31.6878 -82.9650 341° North 397 457 33,000  Level Atlanta Center
03:50PM 31.7944 -83.0103 340° North 403 464 33,000  Level Atlanta Center
03:51PM 31.9033 -83.0531 342° North 408 470 33,000 -250 Level Atlanta Center
03:52PM 32.0103 -83.0958 341° North 408 470 32,500 -1,050 Descending Atlanta Center
03:53PM 32.1189 -83.1389 341° North 408 470 30,900 -1,850 Descending Atlanta Center
03:54PM 32.2383 -83.1867 341° North 408 470 28,800 -1,950 Descending Atlanta Center
03:55PM 32.3450 -83.2300 341° North 408 470 27,000 -1,750 Descending Atlanta Center
03:56PM 32.4475 -83.2758 339° North 408 470 25,300 -1,500 Descending Atlanta Center
03:57PM 32.5481 -83.3169 341° North 397 457 24,000 -650 Descending Atlanta Center
03:58PM 32.6486 -83.3581 341° North 389 448 24,000 -400 Level Atlanta Center
03:59PM 32.7511 -83.3992 341° North 389 448 23,200 -1,850 Descending Atlanta Center
04:00PM 32.8492 -83.4381 342° North 389 448 20,300 -3,050 Descending Atlanta Center
04:01PM 32.9414 -83.4769 341° North 374 430 17,100 -3,000 Descending Atlanta Center
04:02PM 33.0292 -83.5161 339° North 345 397 14,300 -2,650 Descending Atlanta Center
04:03PM 33.1128 -83.5503 341° North 322 371 11,800 -1,650 Descending Atlanta Center
04:04PM 33.1861 -83.5797 341° North 309 356 11,000 -400 Descending Atlanta Center
04:05PM 33.2653 -83.6139 340° North 304 350 11,000  Level Atlanta Center
04:06PM 33.3428 -83.6458 341° North 304 350 11,000 -250 Level Atlanta Center
04:07PM 33.4139 -83.6906 332° Northwest 292 336 10,500 -1,000 Descending Atlanta Center
04:08PM 33.4786 -83.7425 326° Northwest 286 329 9,000 -1,500 Descending Atlanta Center
04:09PM 33.5436 -83.7869 330° Northwest 272 313 7,500 -1,600 Descending Atlanta Center
04:10PM 33.6083 -83.8144 341° North 253 291 5,800 -1,250 Descending Atlanta Center
04:11PM 33.6792 -83.8292 350° North 248 285 5,000 -540 Descending Atlanta Center
04:14PM 33.8000 -83.9500 320° Northwest 233 268 4,000 -291 Descending Atlanta TRACON
04:15PM 33.8000 -84.0167 270° West 224 258 4,000  Level Atlanta TRACON
04:16PM 33.8000 -84.1000 270° West 245 282 4,000  Level Atlanta TRACON
04:17PM 33.8167 -84.1833 284° West 245 282 4,000  Level Atlanta TRACON
04:18PM 33.8167 -84.2500 270° West 243 280 4,000 -650 Level Atlanta TRACON
04:19PM 33.8000 -84.3500 259° West 248 285 2,700 -714 Descending Atlanta TRACON
04:20PM 33.8000 -84.4167 270° West 172 198 2,500 -400 Descending Atlanta TRACON
04:21PM 33.7833 -84.4667 248° West 123 142 1,900 -600 Descending Atlanta TRACON
04:23PM 33.7667 -84.5167 231° Southwest  Level FlightAware Approximate
04:30PM 33.7791 -84.5214 231° Southwest  Level Estimated
04:31PM 33.7791 -84.5214 231° Southwest  Level Estimated